createdAt,value
2024-02-17T00:01:15.329Z,100134.73
2024-02-17T00:03:48.948Z,100134.52
2024-02-17T00:06:21.679Z,100131.08
2024-02-17T00:08:53.431Z,100133.77
2024-02-17T00:11:25.856Z,100136.76
2024-02-17T00:13:57.710Z,100139.84
2024-02-17T00:16:29.718Z,100138.41
2024-02-17T00:19:00.056Z,100144.52
2024-02-17T00:21:32.175Z,100146.42
2024-02-17T00:24:04.045Z,100152.27
2024-02-17T00:26:35.874Z,100155.55
2024-02-17T00:29:07.659Z,100156.01
2024-02-17T00:31:39.299Z,100159.59
2024-02-17T00:34:11.102Z,100164.66
2024-02-17T00:36:43.217Z,100164.27
2024-02-17T00:39:15.033Z,100165.50
2024-02-17T00:41:47.094Z,100162.46
2024-02-17T00:44:19.035Z,100157.49
2024-02-17T00:46:50.794Z,100159.53
2024-02-17T00:49:22.709Z,100162.22
2024-02-17T00:51:52.991Z,100165.80
2024-02-17T00:54:24.776Z,100168.64
2024-02-17T00:56:56.492Z,100172.92
2024-02-17T00:59:28.118Z,100175.45
2024-02-17T01:02:01.815Z,100173.65
2024-02-17T01:04:33.818Z,100177.13
2024-02-17T01:07:04.098Z,100181.77
2024-02-17T01:09:36.074Z,100184.30
2024-02-17T01:12:08.645Z,100186.68
2024-02-17T01:14:40.308Z,100191.61
2024-02-17T01:17:12.093Z,100193.33
2024-02-17T01:19:43.981Z,100199.21
2024-02-17T01:22:14.229Z,100204.39
2024-02-17T01:24:46.283Z,100212.25
2024-02-17T01:27:16.449Z,100210.89
2024-02-17T01:29:48.169Z,100218.88
2024-02-17T01:32:19.955Z,100223.46
2024-02-17T01:34:51.691Z,100228.40
2024-02-17T01:37:23.546Z,100235.04
2024-02-17T01:39:55.453Z,100237.27
2024-02-17T01:42:27.198Z,100241.65
2024-02-17T01:44:58.908Z,100240.85
2024-02-17T01:47:31.765Z,100244.61
2024-02-17T01:50:03.822Z,100245.21
2024-02-17T01:52:36.905Z,100244.95
2024-02-17T01:55:11.177Z,100240.18
2024-02-17T01:57:46.624Z,100238.92
2024-02-17T02:00:20.661Z,100241.23
2024-02-17T02:02:52.863Z,100241.96
2024-02-17T02:05:25.122Z,100242.30
2024-02-17T02:07:57.352Z,100244.90
2024-02-17T02:10:29.194Z,100247.52
2024-02-17T02:13:00.997Z,100239.85
2024-02-17T02:15:37.199Z,100236.94
2024-02-17T02:18:17.410Z,100237.36
2024-02-17T02:20:47.883Z,100243.82
2024-02-17T02:23:20.112Z,100248.23
2024-02-17T02:25:55.312Z,100254.63
2024-02-17T02:28:28.103Z,100254.27
2024-02-17T02:31:00.476Z,100257.30
2024-02-17T02:33:32.416Z,100264.46
2024-02-17T02:36:04.479Z,100262.88
2024-02-17T02:38:34.751Z,100266.86
2024-02-17T02:41:06.854Z,100269.27
2024-02-17T02:43:38.988Z,100264.80
2024-02-17T02:46:11.380Z,100267.55
2024-02-17T02:48:43.305Z,100272.45
2024-02-17T02:51:16.799Z,100279.02
2024-02-17T02:53:48.568Z,100285.06
2024-02-17T02:56:20.299Z,100285.65
2024-02-17T02:58:52.075Z,100286.79
2024-02-17T03:01:23.849Z,100285.05
2024-02-17T03:03:55.679Z,100286.71
2024-02-17T03:06:28.606Z,100285.34
2024-02-17T03:09:00.458Z,100292.07
2024-02-17T03:11:32.282Z,100297.36
2024-02-17T03:14:03.960Z,100302.73
2024-02-17T03:16:35.727Z,100305.29
2024-02-17T03:19:07.494Z,100305.19
2024-02-17T03:21:41.115Z,100306.17
2024-02-17T03:24:13.103Z,100310.73
2024-02-17T03:26:44.787Z,100311.15
2024-02-17T03:29:16.541Z,100316.98
2024-02-17T03:31:48.749Z,100315.09
2024-02-17T03:34:20.568Z,100325.02
2024-02-17T03:36:52.323Z,100327.46
2024-02-17T03:39:24.152Z,100330.75
2024-02-17T03:41:56.524Z,100335.32
2024-02-17T03:44:28.373Z,100340.70
2024-02-17T03:47:00.170Z,100343.37
2024-02-17T03:49:34.289Z,100349.29
2024-02-17T03:52:06.283Z,100350.73
2024-02-17T03:54:38.050Z,100360.48
2024-02-17T03:57:09.913Z,100362.71
2024-02-17T03:59:41.540Z,100367.59
2024-02-17T04:02:13.726Z,100368.34
2024-02-17T04:04:45.452Z,100370.92
2024-02-17T04:07:17.271Z,100377.41
2024-02-17T04:09:49.122Z,100379.23
2024-02-17T04:12:20.825Z,100380.17
2024-02-17T04:14:52.619Z,100383.79
2024-02-17T04:17:24.498Z,100387.23
2024-02-17T04:19:56.228Z,100390.30
2024-02-17T04:22:28.010Z,100393.71
2024-02-17T04:24:59.730Z,100396.61
2024-02-17T04:27:31.640Z,100400.59
2024-02-17T04:30:04.007Z,100404.49
2024-02-17T04:32:35.921Z,100405.89
2024-02-17T04:35:10.363Z,100413.25
2024-02-17T04:37:42.139Z,100417.58
2024-02-17T04:40:15.201Z,100422.08
2024-02-17T04:42:47.199Z,100427.41
2024-02-17T04:45:19.068Z,100430.08
2024-02-17T04:47:50.809Z,100439.68
2024-02-17T04:50:22.755Z,100441.63
2024-02-17T04:52:54.462Z,100446.98
2024-02-17T04:55:27.589Z,100449.85
2024-02-17T04:57:59.737Z,100451.42
2024-02-17T05:00:31.624Z,100457.21
2024-02-17T05:03:04.406Z,100461.09
2024-02-17T05:05:36.176Z,100466.33
2024-02-17T05:08:08.985Z,100466.28
2024-02-17T05:10:41.700Z,100468.20
2024-02-17T05:13:13.506Z,100470.99
2024-02-17T05:15:45.514Z,100472.04
2024-02-17T05:18:15.938Z,100477.05
2024-02-17T05:20:48.750Z,100476.41
2024-02-17T05:23:20.574Z,100481.61
2024-02-17T05:25:52.859Z,100481.71
2024-02-17T05:28:23.145Z,100488.16
2024-02-17T05:30:56.294Z,100483.50
2024-02-17T05:33:28.772Z,100485.85
2024-02-17T05:36:00.592Z,100491.13
2024-02-17T05:38:32.213Z,100490.17
2024-02-17T05:41:03.983Z,100501.39
2024-02-17T05:43:35.615Z,100504.69
2024-02-17T05:46:07.502Z,100510.48
2024-02-17T05:48:39.383Z,100517.12
2024-02-17T05:51:11.155Z,100516.08
2024-02-17T05:53:42.881Z,100516.34
2024-02-17T05:56:14.686Z,100515.55
2024-02-17T05:58:47.016Z,100519.95
2024-02-17T06:01:18.800Z,100524.02
2024-02-17T06:03:50.780Z,100524.29
2024-02-17T06:06:22.585Z,100528.02
2024-02-17T06:08:54.295Z,100530.16
2024-02-17T06:11:25.975Z,100534.40
2024-02-17T06:13:58.323Z,100534.55
2024-02-17T06:16:31.845Z,100543.25
2024-02-17T06:19:20.896Z,100540.98
2024-02-17T06:21:52.698Z,100547.06
2024-02-17T06:24:24.393Z,100547.05
2024-02-17T06:26:56.058Z,100560.33
2024-02-17T06:29:27.768Z,100562.61
2024-02-17T06:31:59.435Z,100567.21
2024-02-17T06:34:31.168Z,100569.15
2024-02-17T06:37:05.090Z,100567.31
2024-02-17T06:39:36.843Z,100575.20
2024-02-17T06:42:09.000Z,100576.77
2024-02-17T06:44:39.162Z,100579.08
2024-02-17T06:47:10.839Z,100586.42
2024-02-17T06:49:42.640Z,100591.29
2024-02-17T06:52:14.307Z,100595.78
2024-02-17T06:54:46.057Z,100596.80
2024-02-17T06:57:17.848Z,100598.86
2024-02-17T06:59:49.634Z,100602.75
2024-02-17T07:02:25.247Z,100605.08
2024-02-17T07:04:58.015Z,100607.71
2024-02-17T07:07:29.688Z,100620.22
2024-02-17T07:10:05.229Z,100624.70
2024-02-17T07:12:39.216Z,100632.13
2024-02-17T07:15:12.318Z,100627.34
2024-02-17T07:17:44.713Z,100628.98
2024-02-17T07:20:16.678Z,100628.33
2024-02-17T07:22:48.396Z,100633.48
2024-02-17T07:25:20.137Z,100638.73
2024-02-17T07:27:51.984Z,100641.42
2024-02-17T07:30:23.817Z,100642.28
2024-02-17T07:32:55.624Z,100647.55
2024-02-17T07:35:27.370Z,100653.91
2024-02-17T07:37:58.968Z,100662.00
2024-02-17T07:40:30.691Z,100663.86
2024-02-17T07:43:02.361Z,100666.98
2024-02-17T07:45:34.495Z,100671.44
2024-02-17T07:48:07.103Z,100676.86
2024-02-17T07:50:38.884Z,100685.04
2024-02-17T07:53:10.579Z,100688.86
2024-02-17T07:55:42.325Z,100697.31
2024-02-17T07:58:14.043Z,100694.88
2024-02-17T08:00:45.750Z,100697.69
2024-02-17T08:03:18.826Z,100701.92
2024-02-17T08:05:52.839Z,100705.98
2024-02-17T08:08:26.082Z,100703.70
2024-02-17T08:10:58.808Z,100708.50
2024-02-17T08:13:31.562Z,100715.34
2024-02-17T08:16:03.668Z,100721.23
2024-02-17T08:18:35.593Z,100723.83
2024-02-17T08:21:07.910Z,100727.86
2024-02-17T08:23:39.568Z,100728.33
2024-02-17T08:26:13.185Z,100729.59
2024-02-17T08:28:45.218Z,100732.02
2024-02-17T08:31:15.478Z,100728.67
2024-02-17T08:33:47.307Z,100731.47
2024-02-17T08:36:20.610Z,100741.84
2024-02-17T08:38:54.254Z,100742.68
2024-02-17T08:41:26.721Z,100744.50
2024-02-17T08:43:58.616Z,100744.59
2024-02-17T08:46:30.332Z,100745.49
2024-02-17T08:49:02.119Z,100748.92
2024-02-17T08:51:33.861Z,100756.86
2024-02-17T08:54:05.958Z,100764.48
2024-02-17T08:56:36.085Z,100762.54
2024-02-17T08:59:07.721Z,100766.75
2024-02-17T09:01:39.445Z,100768.48
2024-02-17T09:04:11.213Z,100766.89
2024-02-17T09:06:43.114Z,100764.86
2024-02-17T09:09:15.507Z,100765.66
2024-02-17T09:11:47.408Z,100765.96
2024-02-17T09:14:19.183Z,100772.46
2024-02-17T09:16:50.972Z,100771.40
2024-02-17T09:19:22.942Z,100772.59
2024-02-17T09:21:53.306Z,100772.46
2024-02-17T09:24:26.644Z,100777.10
2024-02-17T09:27:01.601Z,100784.36
2024-02-17T09:29:34.213Z,100783.65
2024-02-17T09:32:08.044Z,100785.80
2024-02-17T09:34:40.769Z,100788.85
2024-02-17T09:37:15.184Z,100792.63
2024-02-17T09:39:53.173Z,100793.65
2024-02-17T09:42:25.088Z,100797.98
2024-02-17T09:44:56.882Z,100801.59
2024-02-17T09:47:38.119Z,100804.41
2024-02-17T09:54:14.962Z,100810.08
2024-02-17T09:56:55.243Z,100812.40
2024-02-17T09:59:28.075Z,100817.47
2024-02-17T10:01:59.968Z,100817.05
2024-02-17T10:04:30.303Z,100817.67
2024-02-17T10:07:07.173Z,100821.54
2024-02-17T10:09:39.144Z,100830.55
2024-02-17T10:12:11.611Z,100831.67
2024-02-17T10:14:44.583Z,100833.14
2024-02-17T10:17:16.418Z,100841.39
2024-02-17T10:19:46.875Z,100843.14
2024-02-17T10:22:18.852Z,100847.58
2024-02-17T10:24:49.096Z,100849.20
2024-02-17T10:27:25.222Z,100852.77
2024-02-17T10:30:15.514Z,100857.39
2024-02-17T10:32:51.582Z,100856.13
2024-02-17T10:35:25.820Z,100862.52
2024-02-17T10:38:00.060Z,100861.77
2024-02-17T10:40:33.557Z,100865.21
2024-02-17T10:43:06.389Z,100866.28
2024-02-17T10:45:39.421Z,100875.28
2024-02-17T10:48:13.712Z,100881.06
2024-02-17T10:50:51.821Z,100882.81
2024-02-17T10:53:29.916Z,100882.39
2024-02-17T10:56:06.150Z,100887.90
2024-02-17T10:58:41.406Z,100888.95
2024-02-17T11:01:14.905Z,100890.87
2024-02-17T11:03:48.953Z,100890.13
2024-02-17T11:06:21.896Z,100898.64
2024-02-17T11:08:53.985Z,100902.95
2024-02-17T11:11:28.108Z,100900.95
2024-02-17T11:14:01.034Z,100902.30
2024-02-17T11:16:38.030Z,100904.86
2024-02-17T11:19:13.978Z,100900.86
2024-02-17T11:21:48.041Z,100904.05
2024-02-17T11:24:22.054Z,100906.99
2024-02-17T11:26:55.361Z,100907.02
2024-02-17T11:29:35.753Z,100907.73
2024-02-17T11:32:08.546Z,100908.98
2024-02-17T11:34:42.124Z,100910.98
2024-02-17T11:37:15.216Z,100910.84
2024-02-17T11:39:49.002Z,100910.76
2024-02-17T11:42:21.568Z,100910.13
2024-02-17T11:44:57.003Z,100909.80
2024-02-17T11:47:31.662Z,100912.34
2024-02-17T11:50:12.015Z,100909.77
2024-02-17T11:52:43.969Z,100907.11
2024-02-17T11:55:16.410Z,100906.39
2024-02-17T11:57:48.506Z,100902.39
2024-02-17T12:00:20.660Z,100903.37
2024-02-17T12:02:53.952Z,100902.28
2024-02-17T12:05:26.434Z,100902.65
2024-02-17T12:07:58.462Z,100898.83
2024-02-17T12:10:30.760Z,100901.95
2024-02-17T12:13:02.769Z,100902.20
2024-02-17T12:15:34.644Z,100904.80
2024-02-17T12:18:06.010Z,100901.34
2024-02-17T12:20:37.981Z,100905.83
2024-02-17T12:23:09.648Z,100903.62
2024-02-17T12:25:42.368Z,100904.52
2024-02-17T12:28:15.450Z,100909.88
2024-02-17T12:30:51.994Z,100912.45
2024-02-17T12:33:23.922Z,100916.32
2024-02-17T12:35:56.773Z,100918.29
2024-02-17T12:38:29.035Z,100919.41
2024-02-17T12:41:04.816Z,100919.14
2024-02-17T12:43:41.677Z,100920.16
2024-02-17T12:46:25.406Z,100923.90
2024-02-17T12:48:59.674Z,100924.85
2024-02-17T12:51:34.047Z,100926.45
2024-02-17T12:54:06.244Z,100929.20
2024-02-17T12:56:38.954Z,100929.83
2024-02-17T12:59:11.158Z,100934.30
2024-02-17T13:01:43.392Z,100932.73
2024-02-17T13:04:15.275Z,100931.67
2024-02-17T13:06:47.307Z,100935.96
2024-02-17T13:09:19.693Z,100938.08
2024-02-17T13:11:52.573Z,100936.84
2024-02-17T13:14:27.955Z,100940.45
2024-02-17T13:16:59.902Z,100947.34
2024-02-17T13:19:32.168Z,100948.45
2024-02-17T13:22:05.702Z,100943.86
2024-02-17T13:24:37.656Z,100949.25
2024-02-17T13:27:10.025Z,100951.13
2024-02-17T13:29:41.934Z,100954.27
2024-02-17T13:32:12.304Z,100954.95
2024-02-17T13:34:44.333Z,100956.23
2024-02-17T13:37:16.561Z,100959.11
2024-02-17T13:39:48.495Z,100956.91
2024-02-17T13:42:20.431Z,100957.90
2024-02-17T13:44:52.282Z,100959.34
2024-02-17T13:47:22.676Z,100963.20
2024-02-17T13:49:54.806Z,100962.89
2024-02-17T13:52:26.831Z,100969.02
2024-02-17T13:54:57.127Z,100968.92
2024-02-17T13:57:29.716Z,100974.73
2024-02-17T14:00:02.070Z,100973.88
2024-02-17T14:02:37.835Z,100974.37
2024-02-17T14:05:10.416Z,100976.55
2024-02-17T14:07:42.266Z,100976.61
2024-02-17T14:10:12.769Z,100977.38
2024-02-17T14:12:44.555Z,100977.48
2024-02-17T14:15:16.587Z,100980.11
2024-02-17T14:17:48.518Z,100978.45
2024-02-17T14:20:20.813Z,100985.89
2024-02-17T14:22:52.781Z,100986.65
2024-02-17T14:25:24.889Z,100981.02
2024-02-17T14:28:06.348Z,100982.61
2024-02-17T14:30:44.324Z,100987.98
2024-02-17T14:33:14.695Z,100992.30
2024-02-17T14:35:47.096Z,100992.55
2024-02-17T14:38:19.060Z,100995.22
2024-02-17T14:40:51.542Z,100995.80
2024-02-17T14:43:24.225Z,100996.84
2024-02-17T14:45:56.133Z,100996.39
2024-02-17T14:48:26.482Z,100994.50
2024-02-17T14:50:59.214Z,100991.83
2024-02-17T14:53:31.293Z,100995.89
2024-02-17T14:56:04.479Z,100995.94
2024-02-17T14:58:37.876Z,100997.91
2024-02-17T15:01:11.700Z,100997.05
2024-02-17T15:03:44.159Z,101004.72
2024-02-17T15:06:16.663Z,101004.27
2024-02-17T15:08:48.489Z,101013.19
2024-02-17T15:11:21.134Z,101021.83
2024-02-17T15:13:53.220Z,101023.86
2024-02-17T15:16:25.133Z,101020.85
2024-02-17T15:18:56.958Z,101021.46
2024-02-17T15:21:27.374Z,101021.35
2024-02-17T15:23:59.115Z,101023.05
2024-02-17T15:26:30.847Z,101020.44
2024-02-17T15:29:02.852Z,101024.06
2024-02-17T15:31:34.958Z,101027.70
2024-02-17T15:34:06.931Z,101030.60
2024-02-17T15:36:38.984Z,101027.36
2024-02-17T15:39:10.755Z,101026.81
2024-02-17T15:41:41.072Z,101025.40
2024-02-17T15:44:13.261Z,101024.67
2024-02-17T15:46:45.049Z,101026.15
2024-02-17T15:49:17.336Z,101024.55
2024-02-17T15:51:49.231Z,101022.77
2024-02-17T15:54:21.106Z,101026.95
2024-02-17T15:56:56.306Z,101035.21
2024-02-17T15:59:28.731Z,101032.74
2024-02-17T16:02:03.055Z,101027.48
2024-02-17T16:04:35.176Z,101031.21
2024-02-17T16:07:07.228Z,101035.84
2024-02-17T16:09:39.143Z,101036.23
2024-02-17T16:12:11.543Z,101041.41
2024-02-17T16:14:43.507Z,101046.23
2024-02-17T16:17:15.414Z,101046.98
2024-02-17T16:19:45.781Z,101050.44
2024-02-17T16:22:18.219Z,101052.84
2024-02-17T16:24:50.247Z,101052.79
2024-02-17T16:27:22.630Z,101052.09
2024-02-17T16:29:54.620Z,101053.66
2024-02-17T16:32:24.825Z,101061.50
2024-02-17T16:34:58.095Z,101068.25
2024-02-17T16:37:30.067Z,101071.99
2024-02-17T16:40:00.698Z,101069.42
2024-02-17T16:42:34.837Z,101073.12
2024-02-17T16:45:09.144Z,101072.82
2024-02-17T16:47:41.772Z,101076.20
2024-02-17T16:50:14.303Z,101077.73
2024-02-17T16:52:46.833Z,101084.20
2024-02-17T16:55:19.899Z,101088.55
2024-02-17T16:57:52.264Z,101088.46
2024-02-17T17:00:25.058Z,101090.13
2024-02-17T17:02:57.350Z,101095.81
2024-02-17T17:05:32.066Z,101098.77
2024-02-17T17:08:04.246Z,101098.16
2024-02-17T17:10:36.495Z,101097.85
2024-02-17T17:13:08.864Z,101102.21
2024-02-17T17:15:40.950Z,101105.82
2024-02-17T17:18:13.446Z,101106.92
2024-02-17T17:20:49.509Z,101112.95
2024-02-17T17:23:23.364Z,101116.91
2024-02-17T17:25:58.567Z,101115.09
2024-02-17T17:28:30.735Z,101119.69
2024-02-17T17:31:02.987Z,101119.95
2024-02-17T17:33:35.446Z,101121.75
2024-02-17T17:36:09.436Z,101123.88
2024-02-17T17:38:42.049Z,101126.89
2024-02-17T17:41:14.104Z,101126.77
2024-02-17T17:43:46.196Z,101131.83
2024-02-17T17:46:18.422Z,101128.94
2024-02-17T17:48:52.196Z,101131.62
2024-02-17T17:51:24.531Z,101133.35
2024-02-17T17:53:56.629Z,101138.93
2024-02-17T17:56:29.086Z,101138.29
2024-02-17T17:59:01.333Z,101141.38
2024-02-17T18:01:33.697Z,101139.78
2024-02-17T18:04:06.152Z,101138.76
2024-02-17T18:06:41.525Z,101139.50
2024-02-17T18:09:14.139Z,101138.87
2024-02-17T18:11:46.392Z,101138.70
2024-02-17T18:14:18.574Z,101142.67
2024-02-17T18:16:50.654Z,101141.59
2024-02-17T18:19:23.169Z,101141.58
2024-02-17T18:21:55.508Z,101145.80
2024-02-17T18:24:27.719Z,101144.02
2024-02-17T18:26:59.820Z,101151.82
2024-02-17T18:29:31.898Z,101153.80
2024-02-17T18:32:03.891Z,101155.09
2024-02-17T18:34:35.989Z,101156.43
2024-02-17T18:37:08.180Z,101156.14
2024-02-17T18:39:42.315Z,101156.54
2024-02-17T18:42:14.806Z,101158.70
2024-02-17T18:44:47.405Z,101157.59
2024-02-17T18:47:19.572Z,101154.05
2024-02-17T18:49:52.846Z,101151.92
2024-02-17T18:52:29.142Z,101144.67
2024-02-17T18:55:01.502Z,101155.09
2024-02-17T18:57:33.657Z,101158.65
2024-02-17T19:00:06.389Z,101156.89
2024-02-17T19:02:39.512Z,101160.48
2024-02-17T19:05:12.572Z,101163.02
2024-02-17T19:07:45.582Z,101162.85
2024-02-17T19:10:21.714Z,101157.88
2024-02-17T19:12:54.066Z,101159.86
2024-02-17T19:15:29.325Z,101165.45
2024-02-17T19:18:01.424Z,101166.63
2024-02-17T19:20:34.098Z,101162.90
2024-02-17T19:23:08.347Z,101165.08
2024-02-17T19:25:42.125Z,101164.80
2024-02-17T19:28:13.944Z,101164.09
2024-02-17T19:30:44.575Z,101163.77
2024-02-17T19:33:18.240Z,101162.75
2024-02-17T19:35:51.933Z,101166.39
2024-02-17T19:38:25.045Z,101168.04
2024-02-17T19:40:57.490Z,101165.88
2024-02-17T19:43:31.138Z,101165.86
2024-02-17T19:46:04.328Z,101169.95
2024-02-17T19:48:36.898Z,101168.55
2024-02-17T19:51:08.877Z,101169.33
2024-02-17T19:53:41.144Z,101170.30
2024-02-17T19:56:11.506Z,101172.52
2024-02-17T19:58:43.605Z,101175.97
2024-02-17T20:01:16.397Z,101180.16
2024-02-17T20:03:49.135Z,101177.55
2024-02-17T20:06:21.226Z,101179.58
2024-02-17T20:08:53.318Z,101178.68
2024-02-17T20:11:26.378Z,101182.16
2024-02-17T20:13:58.776Z,101184.94
2024-02-17T20:16:30.747Z,101187.73
2024-02-17T20:19:02.958Z,101185.77
2024-02-17T20:21:38.158Z,101191.38
2024-02-17T20:24:10.706Z,101185.98
2024-02-17T20:26:42.523Z,101192.64
2024-02-17T20:29:14.366Z,101191.92
2024-02-17T20:31:46.827Z,101191.93
2024-02-17T20:34:19.111Z,101194.30
2024-02-17T20:36:53.061Z,101198.30
2024-02-17T20:39:25.169Z,101200.38
2024-02-17T20:41:58.051Z,101199.91
2024-02-17T20:44:36.349Z,101202.64
2024-02-17T20:47:09.532Z,101198.48
2024-02-17T20:49:41.943Z,101207.33
2024-02-17T20:52:14.125Z,101204.55
2024-02-17T20:54:44.471Z,101205.30
2024-02-17T20:57:18.621Z,101201.91
2024-02-17T20:59:49.350Z,101199.21
2024-02-17T21:02:22.186Z,101198.09
2024-02-17T21:04:54.515Z,101199.99
2024-02-17T21:07:26.292Z,101198.16
2024-02-17T21:09:58.275Z,101199.48
2024-02-17T21:12:30.103Z,101197.75
2024-02-17T21:15:01.958Z,101197.80
2024-02-17T21:17:35.041Z,101202.14
2024-02-17T21:20:10.430Z,101204.57
2024-02-17T21:22:42.348Z,101202.23
2024-02-17T21:25:12.940Z,101203.08
2024-02-17T21:27:44.800Z,101204.72
2024-02-17T21:30:17.196Z,101200.12
2024-02-17T21:32:49.297Z,101203.61
2024-02-17T21:35:21.254Z,101202.25
2024-02-17T21:37:53.000Z,101201.58
2024-02-17T21:40:25.046Z,101200.91
2024-02-17T21:42:56.840Z,101202.02
2024-02-17T21:45:29.688Z,101202.77
2024-02-17T21:48:02.273Z,101201.59
2024-02-17T21:50:34.235Z,101205.05
2024-02-17T21:53:06.382Z,101200.44
2024-02-17T21:55:38.527Z,101197.25
2024-02-17T21:58:10.427Z,101199.61
2024-02-17T22:00:41.329Z,101198.50
2024-02-17T22:03:11.589Z,101199.59
2024-02-17T22:05:43.592Z,101204.13
2024-02-17T22:08:15.357Z,101208.83
2024-02-17T22:10:47.301Z,101206.66
2024-02-17T22:13:18.983Z,101206.53
2024-02-17T22:15:50.844Z,101204.57
2024-02-17T22:18:21.453Z,101205.65
2024-02-17T22:20:53.709Z,101205.66
2024-02-17T22:23:25.475Z,101211.54
2024-02-17T22:25:57.206Z,101210.33
2024-02-17T22:28:33.142Z,101205.99
2024-02-17T22:31:28.688Z,101206.70
2024-02-17T22:37:56.944Z,101199.02
2024-02-17T22:40:30.184Z,101193.98
2024-02-17T22:43:02.820Z,101193.67
2024-02-17T22:45:35.225Z,101192.45
2024-02-17T22:48:10.509Z,101196.96
2024-02-17T22:50:42.696Z,101204.58
2024-02-17T22:53:15.145Z,101208.88
2024-02-17T22:55:47.083Z,101209.63
2024-02-17T22:58:17.474Z,101206.92
2024-02-17T23:00:50.548Z,101205.99
2024-02-17T23:13:49.290Z,101201.62
2024-02-17T23:17:36.911Z,101198.58
2024-02-17T23:24:22.046Z,101203.42
2024-02-17T23:27:10.688Z,101200.39
2024-02-17T23:35:06.980Z,101199.65
2024-02-17T23:41:05.207Z,101202.04
2024-02-17T23:56:23.381Z,101191.20
2024-02-17T23:59:13.926Z,101193.56
